Time;durP1;ratioP1;P1;durP2;ratioP2;P2;SDS_P1;SDS_P2;PMS_P1;PMS_P2;Temp;Humidity;BMP_temperature;BMP_pressure;BME280_temperature;BME280_humidity;BME280_pressure;Samples;Min_cycle;Max_cycle;Signal;HPM_P1;HPM_P2
2024/04/04 00:00:39;;;;;;;3.10;1.70;;;12.80;98.00;;;;;;5031440;28;20466;-86
2024/04/04 00:03:07;;;;;;;4.20;1.70;;;12.80;98.00;;;;;;5032154;28;20981;-86
2024/04/04 00:05:34;;;;;;;7.00;1.87;;;12.90;98.00;;;;;;5032270;28;20498;-86
2024/04/04 00:08:01;;;;;;;3.00;1.80;;;12.90;98.00;;;;;;5032474;28;20464;-86
2024/04/04 00:10:28;;;;;;;4.67;1.80;;;12.90;98.00;;;;;;5031549;28;20520;-86
2024/04/04 00:12:55;;;;;;;2.47;1.63;;;12.90;98.00;;;;;;5032047;28;20485;-86
2024/04/04 00:15:21;;;;;;;1.50;1.50;;;12.90;98.00;;;;;;5032764;28;20489;-86
2024/04/04 00:17:48;;;;;;;5.23;1.80;;;12.90;98.00;;;;;;5050249;28;20453;-86
2024/04/04 00:22:46;;;;;;;2.37;1.80;;;12.90;98.00;;;;;;4990081;28;20551;-67
2024/04/04 00:25:13;;;;;;;3.23;1.70;;;12.90;98.00;;;;;;4990743;28;20753;-67
2024/04/04 00:27:40;;;;;;;2.00;1.67;;;12.90;98.00;;;;;;4989386;28;20465;-67
2024/04/04 00:30:07;;;;;;;4.40;1.90;;;12.90;98.00;;;;;;4989792;28;20470;-67
2024/04/04 00:32:35;;;;;;;4.60;1.83;;;12.90;98.00;;;;;;4991498;28;20464;-64
2024/04/04 00:35:01;;;;;;;2.17;1.57;;;12.90;98.00;;;;;;4991902;28;20454;-64
2024/04/04 00:37:28;;;;;;;4.60;1.70;;;12.90;98.00;;;;;;4991862;28;20481;-64
2024/04/04 00:39:56;;;;;;;4.20;2.07;;;13.00;98.00;;;;;;4991695;28;20459;-64
2024/04/04 00:42:23;;;;;;;2.90;1.77;;;12.90;98.00;;;;;;4991891;28;20465;-64
2024/04/04 00:44:49;;;;;;;4.23;2.20;;;13.00;98.00;;;;;;4991115;28;20542;-64
2024/04/04 00:47:17;;;;;;;2.57;2.10;;;13.00;98.00;;;;;;4990374;28;20490;-64
2024/04/04 00:49:43;;;;;;;2.50;1.57;;;13.00;98.00;;;;;;4991769;28;20461;-64
2024/04/04 00:52:11;;;;;;;4.67;1.70;;;13.00;98.00;;;;;;4991231;28;20464;-65
2024/04/04 00:54:41;;;;;;;2.73;1.77;;;13.00;98.00;;;;;;4991760;28;20484;-64
2024/04/04 00:57:10;;;;;;;2.10;1.53;;;13.10;98.00;;;;;;5006975;28;20471;-64
2024/04/04 00:59:37;;;;;;;3.87;1.73;;;13.00;98.00;;;;;;4991622;28;20506;-64
2024/04/04 01:02:04;;;;;;;2.40;1.73;;;13.00;98.00;;;;;;4991712;28;20470;-64
2024/04/04 01:04:30;;;;;;;2.53;1.67;;;13.00;98.00;;;;;;5006292;28;20466;-64
2024/04/04 01:06:58;;;;;;;8.67;1.93;;;13.00;98.00;;;;;;4991573;28;20475;-64
2024/04/04 01:09:24;;;;;;;4.37;1.77;;;13.00;98.00;;;;;;4990984;28;20456;-65
2024/04/04 01:11:51;;;;;;;4.13;1.80;;;12.90;98.00;;;;;;4991629;28;20516;-64
2024/04/04 01:14:19;;;;;;;3.83;1.70;;;12.90;98.00;;;;;;4993390;28;20964;-64
2024/04/04 01:16:46;;;;;;;2.60;1.60;;;12.90;98.00;;;;;;4995433;28;20461;-64
2024/04/04 01:19:12;;;;;;;2.90;1.83;;;12.90;98.00;;;;;;4995457;28;20926;-64
2024/04/04 01:21:39;;;;;;;3.27;1.80;;;12.90;98.00;;;;;;4994921;28;20581;-64
2024/04/04 01:24:08;;;;;;;3.67;1.80;;;12.80;98.00;;;;;;4994452;28;20452;-64
2024/04/04 01:26:35;;;;;;;2.47;1.67;;;12.80;98.00;;;;;;4995382;28;20498;-64
2024/04/04 01:29:02;;;;;;;2.57;1.53;;;12.80;98.00;;;;;;4995210;28;20468;-64
2024/04/04 01:31:32;;;;;;;2.73;1.70;;;12.70;98.00;;;;;;4995334;28;20967;-64
2024/04/04 01:33:58;;;;;;;1.80;1.70;;;12.70;98.00;;;;;;4995022;28;20843;-64
2024/04/04 01:36:25;;;;;;;4.60;1.73;;;12.70;98.00;;;;;;4993252;28;20485;-64
2024/04/04 01:38:52;;;;;;;2.67;1.50;;;12.70;98.00;;;;;;4994659;28;20481;-64
2024/04/04 01:41:21;;;;;;;2.00;1.57;;;12.70;98.00;;;;;;4994956;28;20476;-64
2024/04/04 01:43:47;;;;;;;3.20;1.97;;;12.60;98.00;;;;;;4995014;28;20929;-64
2024/04/04 01:46:14;;;;;;;1.83;1.60;;;12.70;98.00;;;;;;4995224;28;20488;-64
2024/04/04 01:48:40;;;;;;;1.90;1.70;;;12.80;98.00;;;;;;4995252;28;20467;-64
2024/04/04 01:51:07;;;;;;;2.50;1.70;;;12.80;98.00;;;;;;4995037;28;20695;-64
2024/04/04 01:53:36;;;;;;;3.33;1.67;;;12.90;98.00;;;;;;4994995;28;20461;-64
2024/04/04 01:56:04;;;;;;;2.07;1.80;;;12.80;98.00;;;;;;4994713;28;20489;-64
2024/04/04 01:58:33;;;;;;;1.70;1.60;;;12.80;98.00;;;;;;4994848;28;20460;-64
2024/04/04 02:01:00;;;;;;;1.30;1.30;;;12.70;98.00;;;;;;4994530;28;20880;-64
2024/04/04 02:03:26;;;;;;;1.67;1.60;;;12.90;98.00;;;;;;4994650;28;20500;-64
2024/04/04 02:05:53;;;;;;;2.00;1.60;;;12.80;98.00;;;;;;4994319;28;20561;-64
2024/04/04 02:08:20;;;;;;;6.50;1.60;;;12.80;98.00;;;;;;4994443;28;20456;-64
2024/04/04 02:10:48;;;;;;;2.07;1.60;;;12.70;98.00;;;;;;4994445;28;20506;-64
2024/04/04 02:13:15;;;;;;;2.50;1.40;;;12.70;98.00;;;;;;4994366;28;20467;-64
2024/04/04 02:15:44;;;;;;;2.00;1.30;;;12.80;98.00;;;;;;4994214;28;20460;-64
2024/04/04 02:18:11;;;;;;;3.30;1.70;;;12.80;98.00;;;;;;4994351;28;20514;-64
2024/04/04 02:20:38;;;;;;;2.93;1.53;;;12.80;98.00;;;;;;4994123;28;20690;-64
2024/04/04 02:23:04;;;;;;;5.17;2.10;;;12.80;98.00;;;;;;4994072;28;20451;-64
2024/04/04 02:25:32;;;;;;;2.23;1.60;;;13.00;98.00;;;;;;4992801;28;20491;-64
2024/04/04 02:27:58;;;;;;;1.90;1.60;;;12.90;98.00;;;;;;4994093;28;20881;-64
2024/04/04 02:30:25;;;;;;;1.60;1.43;;;12.90;98.00;;;;;;4994151;28;20470;-64
2024/04/04 02:32:53;;;;;;;7.00;1.70;;;12.80;98.00;;;;;;4993974;28;20463;-64
2024/04/04 02:35:20;;;;;;;4.87;1.90;;;12.70;98.00;;;;;;4993749;28;20460;-64
2024/04/04 02:37:47;;;;;;;2.30;1.70;;;12.70;98.00;;;;;;5008811;28;20924;-64
2024/04/04 02:40:15;;;;;;;5.60;1.97;;;12.80;98.00;;;;;;4993870;28;20631;-64
2024/04/04 02:42:41;;;;;;;5.63;1.97;;;12.90;98.00;;;;;;4993887;28;20455;-64
2024/04/04 02:45:08;;;;;;;7.57;2.10;;;12.90;98.00;;;;;;4993750;28;20806;-64
2024/04/04 02:47:41;;;;;;;5.50;2.03;;;12.90;98.00;;;;;;4993669;28;20452;-64
2024/04/04 02:50:10;;;;;;;3.20;1.90;;;12.90;98.00;;;;;;5008585;28;20470;-64
2024/04/04 02:52:36;;;;;;;2.27;1.67;;;12.80;98.00;;;;;;4992195;28;20467;-64
2024/04/04 02:55:04;;;;;;;6.90;2.10;;;12.80;98.00;;;;;;4993533;28;20940;-64
2024/04/04 02:57:30;;;;;;;5.60;1.80;;;12.90;98.00;;;;;;4993226;28;20460;-64
2024/04/04 02:59:57;;;;;;;3.40;1.87;;;13.00;98.00;;;;;;4993299;28;20471;-64
2024/04/04 03:02:23;;;;;;;3.87;1.80;;;13.00;98.00;;;;;;4993688;28;20996;-64
2024/04/04 03:04:50;;;;;;;2.30;1.63;;;13.00;98.00;;;;;;4993210;28;20473;-63
2024/04/04 03:07:22;;;;;;;4.13;1.50;;;12.90;98.00;;;;;;4993348;28;20547;-64
2024/04/04 03:09:49;;;;;;;10.40;4.27;;;12.90;98.00;;;;;;5008301;28;20946;-64
2024/04/04 03:12:18;;;;;;;3.47;1.83;;;12.80;98.00;;;;;;4993480;28;20830;-64
2024/04/04 03:14:45;;;;;;;2.70;2.00;;;12.80;98.00;;;;;;4993334;28;20529;-64
2024/04/04 03:17:12;;;;;;;2.50;1.50;;;12.80;98.00;;;;;;4993208;28;20456;-64
2024/04/04 03:19:39;;;;;;;2.30;1.87;;;12.80;98.00;;;;;;4993149;28;20538;-64
2024/04/04 03:22:05;;;;;;;3.40;1.73;;;12.70;98.00;;;;;;4992361;28;20874;-64
2024/04/04 03:24:36;;;;;;;2.20;1.50;;;12.70;98.00;;;;;;5006309;28;20501;-64
2024/04/04 03:27:02;;;;;;;2.90;1.80;;;12.80;98.00;;;;;;4993015;28;20488;-64
2024/04/04 03:29:29;;;;;;;1.40;1.30;;;12.70;98.00;;;;;;4993022;28;20465;-64
2024/04/04 03:31:55;;;;;;;2.63;1.80;;;12.80;98.00;;;;;;4993139;28;20458;-64
2024/04/04 03:34:22;;;;;;;3.53;1.60;;;12.80;98.00;;;;;;4993255;28;20501;-64
2024/04/04 03:36:48;;;;;;;2.67;1.50;;;12.80;98.00;;;;;;4992552;28;20456;-64
2024/04/04 03:39:17;;;;;;;3.37;1.53;;;12.80;98.00;;;;;;4992395;28;20878;-64
2024/04/04 03:41:45;;;;;;;2.10;1.57;;;12.90;98.00;;;;;;4992926;28;20468;-64
2024/04/04 03:44:14;;;;;;;1.93;1.60;;;12.90;98.00;;;;;;4992767;28;20458;-64
2024/04/04 03:46:40;;;;;;;2.63;1.50;;;12.90;98.00;;;;;;5007285;28;20495;-64
2024/04/04 03:49:07;;;;;;;3.40;1.50;;;12.90;98.00;;;;;;4992421;28;20516;-64
2024/04/04 03:51:33;;;;;;;2.53;1.87;;;12.90;98.00;;;;;;4992540;28;20467;-64
2024/04/04 03:54:03;;;;;;;1.97;1.53;;;13.00;98.00;;;;;;4991895;28;20464;-64
2024/04/04 03:56:29;;;;;;;1.83;1.40;;;13.00;98.00;;;;;;4989903;28;20531;-64
2024/04/04 03:58:58;;;;;;;1.70;1.60;;;13.00;98.00;;;;;;4992331;28;20471;-64
2024/04/04 04:01:24;;;;;;;2.47;1.90;;;13.00;98.00;;;;;;4992284;28;20460;-64
2024/04/04 04:03:52;;;;;;;6.07;1.63;;;13.00;98.00;;;;;;4992314;28;20881;-64
2024/04/04 04:06:18;;;;;;;1.93;1.53;;;12.90;98.00;;;;;;4992378;28;20490;-64
2024/04/04 04:08:46;;;;;;;3.03;1.50;;;12.90;98.00;;;;;;4991768;28;20461;-64
2024/04/04 04:11:13;;;;;;;1.77;1.70;;;13.00;98.00;;;;;;4992035;28;20825;-64
2024/04/04 04:13:40;;;;;;;1.50;1.37;;;12.90;98.00;;;;;;4992222;28;21026;-64
2024/04/04 04:16:08;;;;;;;1.77;1.53;;;12.90;98.00;;;;;;4992179;28;20460;-64
2024/04/04 04:18:35;;;;;;;1.50;1.40;;;12.90;98.00;;;;;;5006847;28;20474;-64
2024/04/04 04:21:17;;;;;;;2.07;1.60;;;13.00;98.00;;;;;;4991631;28;20830;-64
2024/04/04 04:23:47;;;;;;;3.03;1.70;;;13.00;98.00;;;;;;5004768;28;20467;-64
2024/04/04 04:26:14;;;;;;;1.90;1.50;;;13.00;98.00;;;;;;5006979;28;20490;-64
2024/04/04 04:28:41;;;;;;;4.17;1.60;;;13.00;98.00;;;;;;4991294;28;20578;-64
2024/04/04 04:31:24;;;;;;;2.03;1.50;;;13.00;98.00;;;;;;4992210;28;20459;-64
2024/04/04 04:33:50;;;;;;;1.47;1.43;;;13.00;98.00;;;;;;4991966;28;20579;-64
2024/04/04 04:36:18;;;;;;;1.87;1.50;;;13.00;98.00;;;;;;4991911;28;20473;-64
2024/04/04 04:38:45;;;;;;;1.70;1.43;;;13.00;98.00;;;;;;4992019;28;20887;-64
2024/04/04 04:41:12;;;;;;;2.93;1.50;;;13.00;98.00;;;;;;4991904;28;20969;-64
2024/04/04 04:43:38;;;;;;;2.40;1.57;;;13.00;98.00;;;;;;4991811;28;20460;-64
2024/04/04 04:46:06;;;;;;;1.97;1.50;;;12.90;98.00;;;;;;4991744;28;20495;-65
2024/04/04 04:48:34;;;;;;;2.03;1.37;;;12.90;98.00;;;;;;4992225;28;20538;-65
2024/04/04 04:51:01;;;;;;;1.73;1.50;;;12.90;98.00;;;;;;4995452;28;20494;-65
2024/04/04 04:53:27;;;;;;;2.43;1.57;;;12.90;98.00;;;;;;4995595;28;20451;-65
2024/04/04 04:55:54;;;;;;;2.77;1.60;;;12.90;98.00;;;;;;5010807;28;20462;-65
2024/04/04 04:58:22;;;;;;;2.00;1.40;;;12.90;98.00;;;;;;4996356;28;20467;-65
2024/04/04 05:00:51;;;;;;;2.90;1.60;;;12.90;98.00;;;;;;4996463;28;20464;-65
2024/04/04 05:03:18;;;;;;;2.50;1.40;;;12.90;98.00;;;;;;4996361;28;20462;-65
2024/04/04 05:05:50;;;;;;;2.43;1.57;;;12.80;98.00;;;;;;4996167;28;20496;-65
2024/04/04 05:08:17;;;;;;;3.90;1.50;;;12.90;98.00;;;;;;4996336;28;20494;-65
2024/04/04 05:10:45;;;;;;;2.57;1.50;;;12.90;98.00;;;;;;4996144;28;20463;-65
2024/04/04 05:13:11;;;;;;;2.50;1.40;;;12.90;98.00;;;;;;4995997;28;20465;-65
2024/04/04 05:15:45;;;;;;;1.40;1.30;;;12.90;98.00;;;;;;4996035;28;20459;-65
2024/04/04 05:18:11;;;;;;;2.43;1.40;;;12.90;98.00;;;;;;4995991;28;20553;-65
2024/04/04 05:20:38;;;;;;;5.60;1.43;;;12.90;98.00;;;;;;4996031;28;20472;-65
2024/04/04 05:23:05;;;;;;;3.00;1.40;;;12.90;98.00;;;;;;4996363;28;20529;-65
2024/04/04 05:25:32;;;;;;;1.90;1.20;;;12.90;98.00;;;;;;4995957;28;20503;-65
2024/04/04 05:27:59;;;;;;;1.30;1.20;;;12.90;98.00;;;;;;4995944;28;20905;-65
2024/04/04 05:30:26;;;;;;;1.50;1.47;;;12.90;98.00;;;;;;4996043;28;20486;-65
2024/04/04 05:32:53;;;;;;;2.80;1.40;;;12.90;98.00;;;;;;4995953;28;20455;-65
2024/04/04 05:35:20;;;;;;;2.57;1.40;;;12.90;98.00;;;;;;4996136;28;20556;-65
2024/04/04 05:37:47;;;;;;;2.30;1.47;;;12.80;98.00;;;;;;4995999;28;20463;-65
2024/04/04 05:40:16;;;;;;;4.50;1.40;;;12.90;98.00;;;;;;4995893;28;20499;-65
2024/04/04 05:42:42;;;;;;;1.63;1.30;;;12.90;98.00;;;;;;4995759;28;20450;-65
2024/04/04 05:45:09;;;;;;;2.67;1.77;;;12.90;98.00;;;;;;4994119;28;20463;-65
2024/04/04 05:47:36;;;;;;;2.53;1.50;;;12.90;98.00;;;;;;4995340;28;20489;-65
2024/04/04 05:50:03;;;;;;;1.93;1.50;;;13.00;98.00;;;;;;4995454;28;20476;-65
2024/04/04 05:52:30;;;;;;;1.97;1.50;;;13.00;98.00;;;;;;4995453;28;20467;-65
2024/04/04 05:54:57;;;;;;;5.90;1.70;;;13.00;98.00;;;;;;4995285;28;20456;-65
2024/04/04 05:57:25;;;;;;;1.60;1.50;;;13.00;98.00;;;;;;4995277;28;20467;-65
2024/04/04 05:59:53;;;;;;;4.00;1.50;;;13.10;98.00;;;;;;4994920;28;20498;-69
2024/04/04 06:02:20;;;;;;;2.07;1.37;;;13.20;98.00;;;;;;5010161;28;20457;-69
2024/04/04 06:04:47;;;;;;;3.20;1.50;;;13.20;98.00;;;;;;4995061;28;20474;-68
2024/04/04 06:07:13;;;;;;;2.80;1.50;;;13.20;98.00;;;;;;4993731;28;20514;-70
2024/04/04 06:09:42;;;;;;;2.90;1.50;;;13.20;98.00;;;;;;4995029;28;20475;-69
2024/04/04 06:12:09;;;;;;;3.13;1.60;;;13.20;98.00;;;;;;4995202;28;20490;-68
2024/04/04 06:14:39;;;;;;;2.00;1.50;;;13.30;98.00;;;;;;4994974;28;20870;-69
2024/04/04 06:17:05;;;;;;;3.50;2.00;;;13.30;98.00;;;;;;4994905;28;20972;-68
2024/04/04 06:19:32;;;;;;;6.10;1.87;;;13.30;98.00;;;;;;4994593;28;20978;-68
2024/04/04 06:21:58;;;;;;;4.00;1.57;;;13.30;98.00;;;;;;4994636;28;20465;-68
2024/04/04 06:24:25;;;;;;;5.37;1.70;;;13.30;98.00;;;;;;4994760;28;20464;-68
2024/04/04 06:26:51;;;;;;;1.97;1.40;;;13.30;98.00;;;;;;4994885;28;20996;-69
2024/04/04 06:29:19;;;;;;;4.20;1.40;;;13.30;98.00;;;;;;5009941;28;20500;-68
2024/04/04 06:31:47;;;;;;;2.13;1.43;;;13.40;98.00;;;;;;4993412;28;20535;-70
2024/04/04 06:34:15;;;;;;;4.00;1.70;;;13.50;98.00;;;;;;4993545;28;20552;-69
2024/04/04 06:36:41;;;;;;;3.03;1.67;;;13.50;98.00;;;;;;4994620;28;20452;-68
2024/04/04 06:39:09;;;;;;;1.93;1.43;;;13.70;98.00;;;;;;4994529;28;20464;-69
2024/04/04 06:41:35;;;;;;;2.67;1.60;;;13.70;98.00;;;;;;4994384;28;20458;-69
2024/04/04 06:44:02;;;;;;;3.37;1.60;;;13.80;98.00;;;;;;4994496;28;20463;-68
2024/04/04 06:46:29;;;;;;;3.27;1.60;;;13.80;98.00;;;;;;4994262;28;21014;-70
2024/04/04 06:48:57;;;;;;;2.77;1.90;;;13.90;98.00;;;;;;4994398;28;20547;-69
2024/04/04 06:51:25;;;;;;;3.50;1.60;;;13.90;98.00;;;;;;4994089;28;20460;-69
2024/04/04 06:53:52;;;;;;;2.50;1.70;;;13.90;98.00;;;;;;4993014;28;20890;-68
2024/04/04 06:56:18;;;;;;;2.17;1.53;;;13.90;98.00;;;;;;4994374;28;20514;-68
2024/04/04 06:58:46;;;;;;;4.20;1.60;;;13.90;98.00;;;;;;4994229;28;20970;-69
2024/04/04 07:01:12;;;;;;;3.40;2.00;;;13.90;98.00;;;;;;4996512;28;20457;-70
2024/04/04 07:03:39;;;;;;;3.40;1.67;;;14.00;98.00;;;;;;5013460;28;21129;-68
2024/04/04 07:06:06;;;;;;;2.27;1.53;;;14.00;98.00;;;;;;5012430;28;20494;-68
2024/04/04 07:08:35;;;;;;;8.80;1.83;;;14.00;98.00;;;;;;5013559;28;20478;-68
2024/04/04 07:11:04;;;;;;;4.27;1.70;;;13.90;98.00;;;;;;5011809;28;20534;-68
2024/04/04 07:13:33;;;;;;;3.33;1.80;;;14.00;98.00;;;;;;5013323;28;20467;-69
2024/04/04 07:16:02;;;;;;;1.53;1.50;;;14.10;98.00;;;;;;5013344;28;20866;-67
2024/04/04 07:18:31;;;;;;;4.13;2.00;;;14.20;98.00;;;;;;5012859;28;20547;-69
2024/04/04 07:20:58;;;;;;;6.30;2.13;;;14.20;98.00;;;;;;5013210;28;20543;-68
2024/04/04 07:23:28;;;;;;;7.63;2.00;;;14.30;98.00;;;;;;5013805;28;20459;-69
2024/04/04 07:25:55;;;;;;;2.67;1.70;;;14.40;98.00;;;;;;5013262;28;20451;-68
2024/04/04 07:28:22;;;;;;;2.23;1.70;;;14.60;98.00;;;;;;5013222;28;20468;-69
2024/04/04 07:30:50;;;;;;;5.53;1.90;;;14.70;98.00;;;;;;5013325;28;20455;-69
2024/04/04 07:33:17;;;;;;;4.10;1.80;;;14.90;98.00;;;;;;5011801;28;20475;-69
2024/04/04 07:35:44;;;;;;;2.63;1.60;;;15.10;98.00;;;;;;5012941;28;20463;-69
2024/04/04 07:38:11;;;;;;;3.07;1.60;;;15.20;98.00;;;;;;5013036;28;20462;-69
2024/04/04 07:40:40;;;;;;;3.40;1.60;;;15.40;98.00;;;;;;5013218;28;20467;-69
2024/04/04 07:43:08;;;;;;;5.10;2.13;;;15.40;98.00;;;;;;5012829;28;20466;-69
2024/04/04 07:45:37;;;;;;;6.77;2.00;;;15.50;98.00;;;;;;5012620;28;20459;-68
2024/04/04 07:48:04;;;;;;;6.20;1.77;;;15.50;98.00;;;;;;5012561;28;20491;-69
2024/04/04 07:50:31;;;;;;;4.87;2.00;;;15.50;98.00;;;;;;5011698;28;20459;-69
2024/04/04 07:52:58;;;;;;;3.50;1.70;;;15.50;98.00;;;;;;5012664;28;21148;-69
2024/04/04 07:55:24;;;;;;;5.83;1.80;;;15.50;98.00;;;;;;5012783;28;20455;-68
2024/04/04 07:57:53;;;;;;;5.07;2.03;;;15.50;98.00;;;;;;5011481;28;20463;-69
2024/04/04 08:00:21;;;;;;;8.30;1.90;;;15.30;98.00;;;;;;5012673;28;20865;-69
2024/04/04 08:02:48;;;;;;;6.27;1.80;;;15.20;98.00;;;;;;5012529;28;20477;-68
2024/04/04 08:05:15;;;;;;;4.23;1.87;;;15.10;98.00;;;;;;5012582;28;20482;-69
2024/04/04 08:07:42;;;;;;;8.53;2.30;;;15.10;98.00;;;;;;5011314;28;20495;-68
2024/04/04 08:10:10;;;;;;;3.87;1.80;;;15.10;98.00;;;;;;5012461;28;20451;-69
2024/04/04 08:12:37;;;;;;;3.67;1.80;;;15.00;98.00;;;;;;5012372;28;20566;-69
2024/04/04 08:15:09;;;;;;;10.20;1.80;;;15.10;98.00;;;;;;5012341;28;20458;-68
2024/04/04 08:17:40;;;;;;;8.87;1.97;;;15.10;98.00;;;;;;5012406;28;20464;-68
2024/04/04 08:20:08;;;;;;;2.27;1.63;;;15.10;98.00;;;;;;5012346;28;20495;-69
2024/04/04 08:22:35;;;;;;;3.60;1.67;;;15.10;98.00;;;;;;5012239;28;20840;-69
2024/04/04 08:25:02;;;;;;;5.17;1.80;;;15.10;98.00;;;;;;5011334;28;20463;-69
2024/04/04 08:27:31;;;;;;;5.50;1.73;;;15.10;98.00;;;;;;5012293;28;20509;-68
2024/04/04 08:29:57;;;;;;;6.23;2.03;;;15.20;98.00;;;;;;5011579;28;20462;-69
2024/04/04 08:32:30;;;;;;;7.27;1.77;;;15.20;98.00;;;;;;5012125;28;20460;-68
2024/04/04 08:34:57;;;;;;;5.17;2.07;;;15.20;98.00;;;;;;5011722;28;20460;-69
2024/04/04 08:37:24;;;;;;;3.90;2.00;;;15.20;98.00;;;;;;5012459;28;20481;-68
2024/04/04 08:39:50;;;;;;;5.10;2.10;;;15.30;98.00;;;;;;5012222;28;20828;-69
2024/04/04 08:42:18;;;;;;;4.60;1.63;;;15.30;98.00;;;;;;5012156;28;20975;-69
2024/04/04 08:44:45;;;;;;;3.17;1.90;;;15.30;98.00;;;;;;5012053;28;20454;-69
2024/04/04 08:47:14;;;;;;;6.53;1.97;;;15.30;98.00;;;;;;5012070;28;20494;-70
2024/04/04 08:49:43;;;;;;;3.20;1.80;;;15.30;98.00;;;;;;5012381;28;20451;-68
2024/04/04 08:52:11;;;;;;;4.20;1.70;;;15.20;98.00;;;;;;5011163;28;20530;-69
2024/04/04 08:54:37;;;;;;;4.33;1.60;;;15.20;98.00;;;;;;5012050;28;20447;-69
2024/04/04 08:57:05;;;;;;;2.77;1.50;;;15.20;98.00;;;;;;5010365;28;20858;-69
2024/04/04 08:59:31;;;;;;;5.43;1.80;;;15.20;98.00;;;;;;5012147;28;20811;-69
2024/04/04 09:01:59;;;;;;;4.37;1.93;;;15.20;98.00;;;;;;5012347;28;20487;-68
2024/04/04 09:04:26;;;;;;;4.00;2.10;;;15.20;98.00;;;;;;5012241;28;20495;-68
2024/04/04 09:06:56;;;;;;;4.40;1.80;;;15.20;98.00;;;;;;5011877;28;20475;-68
2024/04/04 09:09:23;;;;;;;5.10;1.90;;;15.10;98.00;;;;;;5012386;28;20802;-68
2024/04/04 09:11:50;;;;;;;4.80;2.10;;;15.10;98.00;;;;;;5012079;28;20470;-66
2024/04/04 09:14:17;;;;;;;4.40;2.03;;;15.10;98.00;;;;;;5012299;28;20514;-66
2024/04/04 09:16:45;;;;;;;2.80;1.60;;;15.10;98.00;;;;;;5011325;28;20508;-67
2024/04/04 09:19:13;;;;;;;3.40;1.80;;;15.10;98.00;;;;;;5012079;28;20462;-66
2024/04/04 09:21:43;;;;;;;3.10;1.93;;;15.10;98.00;;;;;;5011498;28;20505;-66
2024/04/04 09:24:13;;;;;;;3.50;1.60;;;15.20;98.00;;;;;;5011559;28;20455;-66
2024/04/04 09:26:41;;;;;;;2.90;1.67;;;15.20;98.00;;;;;;4996884;28;20483;-66
2024/04/04 09:29:08;;;;;;;3.77;1.70;;;15.20;98.00;;;;;;4991444;28;20484;-66
2024/04/04 09:31:37;;;;;;;4.50;2.00;;;15.20;98.00;;;;;;4991997;28;20872;-67
2024/04/04 09:34:04;;;;;;;4.10;1.80;;;15.20;98.00;;;;;;4992107;28;20459;-66
2024/04/04 09:36:32;;;;;;;2.80;1.83;;;15.30;98.00;;;;;;4995445;28;20555;-66
2024/04/04 09:38:59;;;;;;;4.40;1.60;;;15.30;98.00;;;;;;4995746;28;20464;-66
2024/04/04 09:41:30;;;;;;;2.97;1.60;;;15.30;98.00;;;;;;4995034;28;20515;-66
2024/04/04 09:43:57;;;;;;;4.40;1.73;;;15.40;98.00;;;;;;4995530;28;20464;-67
2024/04/04 09:46:25;;;;;;;6.40;1.93;;;15.50;98.00;;;;;;4995415;28;20555;-66
2024/04/04 09:48:53;;;;;;;2.70;1.57;;;15.50;98.00;;;;;;4987398;28;20504;-66
2024/04/04 09:51:21;;;;;;;4.47;1.70;;;15.60;98.00;;;;;;4992050;28;20526;-67
2024/04/04 09:53:49;;;;;;;2.80;1.70;;;15.70;98.00;;;;;;4994501;28;20471;-66
2024/04/04 09:56:19;;;;;;;5.00;1.90;;;15.80;98.00;;;;;;5012599;28;20489;-66
2024/04/04 09:58:47;;;;;;;3.90;1.70;;;15.90;98.00;;;;;;5014770;28;20487;-66
2024/04/04 10:01:19;;;;;;;6.13;1.80;;;15.80;98.00;;;;;;5008553;28;20515;-66
2024/04/04 10:03:50;;;;;;;5.20;1.77;;;15.90;98.00;;;;;;4995075;28;20558;-66
2024/04/04 10:06:33;;;;;;;5.63;1.80;;;15.90;98.00;;;;;;4994642;28;20486;-66
2024/04/04 10:08:59;;;;;;;7.60;1.70;;;16.00;98.00;;;;;;4994541;28;20449;-66
2024/04/04 10:11:33;;;;;;;2.87;1.50;;;16.00;98.00;;;;;;4994670;28;20468;-66
2024/04/04 10:14:05;;;;;;;3.87;1.80;;;16.10;98.00;;;;;;4994703;28;20518;-66
2024/04/04 10:16:35;;;;;;;4.60;1.70;;;16.10;98.00;;;;;;4994779;28;20465;-67
2024/04/04 10:19:09;;;;;;;4.13;1.73;;;16.20;98.00;;;;;;4994828;28;20566;-66
2024/04/04 10:21:37;;;;;;;3.40;1.90;;;16.20;98.00;;;;;;4994754;28;20472;-66
2024/04/04 10:24:04;;;;;;;3.23;1.67;;;16.20;98.00;;;;;;4994667;28;20452;-66
2024/04/04 10:26:31;;;;;;;2.37;1.60;;;16.10;98.00;;;;;;4994590;28;20465;-66
2024/04/04 10:28:57;;;;;;;3.20;1.73;;;16.10;98.00;;;;;;5009715;28;20511;-66
2024/04/04 10:31:26;;;;;;;5.00;1.80;;;16.10;98.00;;;;;;5009763;28;20464;-66
2024/04/04 10:34:03;;;;;;;4.60;1.70;;;16.00;98.00;;;;;;4994519;28;20452;-67
2024/04/04 10:36:44;;;;;;;6.43;2.00;;;15.90;98.00;;;;;;4994639;28;20456;-66
2024/04/04 10:39:12;;;;;;;4.60;1.73;;;15.80;98.00;;;;;;4994706;28;20474;-66
2024/04/04 10:41:44;;;;;;;5.30;1.87;;;15.70;98.00;;;;;;4994009;28;20491;-66
2024/04/04 10:44:13;;;;;;;3.77;1.93;;;15.60;98.00;;;;;;4994374;28;20456;-66
2024/04/04 10:46:43;;;;;;;2.80;1.60;;;15.60;98.00;;;;;;4993486;28;20493;-66
2024/04/04 10:49:09;;;;;;;8.33;2.37;;;15.50;98.00;;;;;;4994562;28;20479;-66
2024/04/04 10:51:37;;;;;;;5.93;1.87;;;15.40;98.00;;;;;;4994524;28;20478;-66
2024/04/04 10:54:03;;;;;;;3.30;1.60;;;15.50;98.00;;;;;;4994493;28;20460;-66
2024/04/04 10:56:31;;;;;;;2.70;1.50;;;15.40;98.00;;;;;;4993934;28;20483;-66
2024/04/04 10:58:57;;;;;;;9.43;2.03;;;15.40;98.00;;;;;;4993957;28;20460;-66
2024/04/04 11:01:25;;;;;;;3.30;1.73;;;15.30;98.00;;;;;;5008760;28;20465;-66
2024/04/04 11:03:57;;;;;;;4.13;1.77;;;15.40;98.00;;;;;;4993622;28;20451;-66
2024/04/04 11:06:28;;;;;;;3.00;1.50;;;15.40;98.00;;;;;;4993613;28;20558;-67
2024/04/04 11:08:55;;;;;;;4.50;2.10;;;15.40;98.00;;;;;;4993773;28;20539;-67
2024/04/04 11:11:23;;;;;;;3.20;1.80;;;15.50;98.00;;;;;;4993840;28;20910;-67
2024/04/04 11:13:51;;;;;;;4.00;1.97;;;15.40;98.00;;;;;;4993692;28;20459;-66
2024/04/04 11:16:20;;;;;;;4.70;1.93;;;15.40;98.00;;;;;;4993717;28;20530;-67
2024/04/04 11:18:47;;;;;;;2.90;1.50;;;15.40;98.00;;;;;;4993510;28;20452;-66
2024/04/04 11:21:18;;;;;;;2.60;1.80;;;15.30;98.00;;;;;;4993600;28;20503;-66
2024/04/04 11:23:44;;;;;;;6.23;1.70;;;15.40;98.00;;;;;;4993502;28;20471;-67
2024/04/04 11:26:22;;;;;;;2.67;1.70;;;15.40;98.00;;;;;;4993430;28;20465;-66
2024/04/04 11:28:49;;;;;;;1.90;1.80;;;15.50;98.00;;;;;;4993395;28;20520;-66
2024/04/04 11:31:16;;;;;;;5.93;1.80;;;15.70;98.00;;;;;;4993477;28;20579;-66
2024/04/04 11:33:42;;;;;;;2.30;1.77;;;15.90;98.00;;;;;;4993245;28;20977;-66
2024/04/04 11:36:09;;;;;;;2.90;1.67;;;16.00;98.00;;;;;;4993285;28;20942;-66
2024/04/04 11:38:37;;;;;;;4.00;1.60;;;15.90;98.00;;;;;;4993186;28;20467;-66
2024/04/04 11:41:04;;;;;;;5.27;1.70;;;15.90;98.00;;;;;;4993167;28;20555;-66
2024/04/04 11:43:31;;;;;;;3.10;1.70;;;15.90;98.00;;;;;;4993168;28;20452;-66
2024/04/04 11:45:59;;;;;;;4.90;1.90;;;16.00;98.00;;;;;;5008082;28;20469;-66
2024/04/04 11:48:25;;;;;;;3.80;1.90;;;16.00;98.00;;;;;;4992947;28;20491;-66
2024/04/04 11:50:52;;;;;;;4.40;1.90;;;16.10;98.00;;;;;;4992986;28;20519;-66
2024/04/04 11:53:18;;;;;;;3.37;1.87;;;16.10;98.00;;;;;;4993126;28;20449;-66
2024/04/04 11:55:47;;;;;;;4.17;2.03;;;16.10;98.00;;;;;;4993013;28;20471;-66
2024/04/04 11:58:13;;;;;;;5.47;1.87;;;16.10;98.00;;;;;;4992259;28;20464;-66
2024/04/04 12:00:40;;;;;;;3.80;1.90;;;16.10;98.00;;;;;;4992820;28;20894;-66
2024/04/04 12:03:07;;;;;;;2.80;1.70;;;16.10;98.00;;;;;;4992851;28;20471;-66
2024/04/04 12:05:36;;;;;;;4.57;1.93;;;15.90;98.00;;;;;;4992645;28;20478;-66
2024/04/04 12:08:03;;;;;;;4.17;1.87;;;16.00;98.00;;;;;;4992596;28;20604;-66
2024/04/04 12:10:31;;;;;;;2.60;1.70;;;15.90;98.00;;;;;;4992673;28;20468;-66
2024/04/04 12:12:59;;;;;;;4.07;1.80;;;15.90;98.00;;;;;;5007773;28;20465;-66
2024/04/04 12:15:27;;;;;;;2.80;1.87;;;15.90;98.00;;;;;;4992854;28;20471;-66
2024/04/04 12:19:25;;;;;;;3.37;1.70;;;15.90;98.00;;;;;;4992483;28;20452;-66
2024/04/04 12:20:40;;;;;;;6.90;2.20;;;15.90;98.00;;;;;;4992272;28;20817;-68
2024/04/04 12:23:07;;;;;;;5.00;1.80;;;15.90;98.00;;;;;;4992514;28;20472;-66
2024/04/04 12:25:34;;;;;;;4.70;2.10;;;16.00;98.00;;;;;;4992646;28;20465;-66
2024/04/04 12:28:02;;;;;;;3.90;1.80;;;16.10;98.00;;;;;;4992400;28;20901;-66
2024/04/04 12:30:28;;;;;;;4.80;2.13;;;16.10;98.00;;;;;;4992592;28;20460;-66
2024/04/04 12:32:57;;;;;;;3.13;1.97;;;16.10;98.00;;;;;;4992645;28;21182;-66
2024/04/04 12:35:23;;;;;;;1.83;1.73;;;16.20;98.00;;;;;;4992587;28;20457;-66
2024/04/04 12:37:50;;;;;;;3.30;1.80;;;16.10;98.00;;;;;;4992428;28;20962;-64
2024/04/04 12:40:16;;;;;;;3.80;1.90;;;16.00;98.00;;;;;;4992559;28;20476;-66
2024/04/04 12:42:43;;;;;;;3.83;1.80;;;16.00;98.00;;;;;;4992960;28;20804;-67
2024/04/04 12:45:11;;;;;;;2.33;1.40;;;16.00;98.00;;;;;;4992746;28;20467;-66
2024/04/04 12:47:38;;;;;;;3.07;1.70;;;15.80;98.00;;;;;;5007719;28;20514;-68
2024/04/04 12:50:05;;;;;;;3.50;1.40;;;15.70;98.00;;;;;;4992427;28;20461;-69
2024/04/04 12:52:32;;;;;;;2.80;1.60;;;15.60;98.00;;;;;;4992262;28;20479;-68